Time;durP1;ratioP1;P1;durP2;ratioP2;P2;SDS_P1;SDS_P2;PMS_P1;PMS_P2;Temp;Humidity;BMP_temperature;BMP_pressure;BME280_temperature;BME280_humidity;BME280_pressure;Samples;Min_cycle;Max_cycle;Signal;HPM_P1;HPM_P2
2022/03/22 00:02:12;;;;;;;;;;;4.00;69.00;;;;;;5056125;28;19956;-87
2022/03/22 00:04:38;;;;;;;;;;;4.00;69.00;;;;;;5056039;28;19909;-87
2022/03/22 00:07:03;;;;;;;;;;;4.00;69.20;;;;;;5056041;28;19977;-87
2022/03/22 00:09:29;;;;;;;;;;;4.00;69.00;;;;;;5055670;28;20305;-87
2022/03/22 00:11:54;;;;;;;;;;;4.10;68.90;;;;;;5055947;28;19912;-86
2022/03/22 00:14:20;;;;;;;;;;;3.90;67.60;;;;;;5055832;28;19958;-86
2022/03/22 00:16:46;;;;;;;;;;;3.80;66.00;;;;;;5055817;28;20286;-86
2022/03/22 00:19:11;;;;;;;;;;;3.80;64.80;;;;;;5055538;28;19923;-86
2022/03/22 00:21:37;;;;;;;;;;;3.90;63.50;;;;;;5055378;28;19948;-86
2022/03/22 00:24:03;;;;;;;;;;;4.00;62.00;;;;;;5055417;28;20263;-86
2022/03/22 00:26:28;;;;;;;;;;;4.10;60.40;;;;;;5021284;28;19932;-86
2022/03/22 00:28:54;;;;;;;;;;;4.10;61.70;;;;;;5055390;28;20363;-86
2022/03/22 00:31:20;;;;;;;;;;;4.00;61.50;;;;;;5055709;28;19916;-86
2022/03/22 00:33:45;;;;;;;;;;;3.80;62.30;;;;;;5055415;28;20351;-87
2022/03/22 00:36:11;;;;;;;;;;;3.60;62.80;;;;;;5055732;28;19913;-87
2022/03/22 00:38:36;;;;;;;;;;;3.40;62.90;;;;;;5055036;28;20306;-87
2022/03/22 00:41:02;;;;;;;;;;;3.20;64.00;;;;;;5055479;28;19916;-87
2022/03/22 00:43:27;;;;;;;;;;;3.20;63.40;;;;;;5055341;28;19909;-86
2022/03/22 00:45:55;;;;;;;;;;;3.10;64.20;;;;;;5055325;28;19909;-87
2022/03/22 00:48:20;;;;;;;;;;;3.20;64.00;;;;;;5054939;28;20355;-87
2022/03/22 00:50:51;;;;;;;;;;;3.20;63.70;;;;;;5037656;28;19915;-87
2022/03/22 00:53:18;;;;;;;;;;;3.20;63.20;;;;;;5055190;28;20363;-87
2022/03/22 00:55:44;;;;;;;;;;;3.10;62.90;;;;;;5054877;28;20007;-86
2022/03/22 00:58:10;;;;;;;;;;;3.00;62.10;;;;;;5054789;28;20004;-87
2022/03/22 01:00:36;;;;;;;;;;;3.00;62.00;;;;;;5055025;28;19920;-86
2022/03/22 01:03:02;;;;;;;;;;;3.00;62.50;;;;;;5037410;28;20015;-86
2022/03/22 01:05:28;;;;;;;;;;;2.90;63.90;;;;;;5054917;28;20355;-86
2022/03/22 01:08:02;;;;;;;;;;;2.70;63.30;;;;;;5036931;28;19915;-86
2022/03/22 01:10:29;;;;;;;;;;;2.70;62.30;;;;;;5034645;28;19913;-86
2022/03/22 01:12:55;;;;;;;;;;;2.90;61.00;;;;;;5034909;28;19916;-86
2022/03/22 01:15:25;;;;;;;;;;;3.10;59.20;;;;;;5034765;28;19913;-86
2022/03/22 01:17:52;;;;;;;;;;;3.40;57.40;;;;;;5034677;28;19998;-87
2022/03/22 01:20:22;;;;;;;;;;;3.80;56.90;;;;;;5053714;28;19913;-86
2022/03/22 01:22:49;;;;;;;;;;;4.00;56.20;;;;;;5054570;28;19910;-86
2022/03/22 01:25:18;;;;;;;;;;;4.20;55.10;;;;;;5054567;28;19909;-87
2022/03/22 01:27:48;;;;;;;;;;;4.20;55.50;;;;;;5054495;28;19962;-87
2022/03/22 01:30:16;;;;;;;;;;;4.10;56.80;;;;;;5054011;28;19912;-87
2022/03/22 01:32:45;;;;;;;;;;;3.90;58.20;;;;;;5054351;28;19913;-87
2022/03/22 01:35:11;;;;;;;;;;;3.80;58.80;;;;;;5053184;28;19913;-87
2022/03/22 01:37:37;;;;;;;;;;;3.80;58.00;;;;;;5054278;28;20329;-86
2022/03/22 01:40:03;;;;;;;;;;;3.80;56.70;;;;;;5054093;28;19912;-87
2022/03/22 01:42:29;;;;;;;;;;;3.90;55.90;;;;;;5036394;28;19909;-86
2022/03/22 01:44:54;;;;;;;;;;;4.00;53.90;;;;;;5054220;28;19966;-86
2022/03/22 01:47:23;;;;;;;;;;;4.20;52.80;;;;;;5036196;28;19912;-87
2022/03/22 01:49:49;;;;;;;;;;;4.20;53.00;;;;;;5053736;28;20374;-86
2022/03/22 01:52:15;;;;;;;;;;;4.10;53.80;;;;;;5054323;28;20000;-86
2022/03/22 01:54:41;;;;;;;;;;;4.10;54.10;;;;;;5053720;28;19921;-87
2022/03/22 01:57:07;;;;;;;;;;;4.10;53.10;;;;;;5053931;28;19995;-87
2022/03/22 01:59:33;;;;;;;;;;;4.00;52.60;;;;;;5053710;28;19919;-87
2022/03/22 02:07:31;;;;;;;;;;;4.40;51.30;;;;;;5053803;28;19916;-87
2022/03/22 02:09:57;;;;;;;;;;;4.70;49.60;;;;;;5053334;28;19913;-87
2022/03/22 02:12:23;;;;;;;;;;;4.90;49.00;;;;;;5053697;28;20007;-87
2022/03/22 02:14:48;;;;;;;;;;;5.10;48.90;;;;;;5053515;28;20050;-87
2022/03/22 02:17:14;;;;;;;;;;;5.20;48.40;;;;;;5053578;28;20003;-87
2022/03/22 02:19:40;;;;;;;;;;;5.30;48.40;;;;;;5053339;28;19963;-87
2022/03/22 02:22:06;;;;;;;;;;;5.40;47.10;;;;;;5053441;28;19920;-86
2022/03/22 02:24:32;;;;;;;;;;;5.70;46.10;;;;;;5053459;28;19909;-87
2022/03/22 02:26:58;;;;;;;;;;;5.90;45.20;;;;;;5053453;28;20012;-87
2022/03/22 02:29:23;;;;;;;;;;;5.90;45.90;;;;;;5053109;28;19944;-87
2022/03/22 02:31:49;;;;;;;;;;;5.90;44.50;;;;;;5053256;28;19911;-86
2022/03/22 02:34:14;;;;;;;;;;;5.80;44.40;;;;;;5053236;28;19912;-86
2022/03/22 02:36:40;;;;;;;;;;;5.80;44.90;;;;;;5053278;28;19916;-87
2022/03/22 02:39:05;;;;;;;;;;;5.70;45.70;;;;;;5052957;28;19916;-87
2022/03/22 02:41:32;;;;;;;;;;;5.50;46.40;;;;;;5053221;28;19916;-87
2022/03/22 02:43:57;;;;;;;;;;;5.40;46.40;;;;;;5053378;28;19909;-87
2022/03/22 02:46:23;;;;;;;;;;;5.30;47.00;;;;;;5052789;28;19970;-86
2022/03/22 02:48:49;;;;;;;;;;;5.30;46.10;;;;;;5052742;28;19920;-87
2022/03/22 02:51:14;;;;;;;;;;;5.40;45.80;;;;;;5052987;28;19909;-87
2022/03/22 02:53:40;;;;;;;;;;;5.50;45.40;;;;;;5065078;22;19924;-87
2022/03/22 02:56:07;;;;;;;;;;;5.50;44.80;;;;;;5072517;28;20312;-87
2022/03/22 02:58:33;;;;;;;;;;;5.70;44.60;;;;;;5072972;28;19912;-87
2022/03/22 03:00:59;;;;;;;;;;;5.80;44.30;;;;;;5073001;28;19962;-87
2022/03/22 03:03:25;;;;;;;;;;;5.90;44.00;;;;;;5073034;28;19915;-87
2022/03/22 03:05:51;;;;;;;;;;;5.90;43.50;;;;;;5053639;28;19909;-87
2022/03/22 03:08:17;;;;;;;;;;;6.10;43.00;;;;;;5052947;28;19913;-86
2022/03/22 03:10:43;;;;;;;;;;;6.10;43.10;;;;;;5052912;28;19909;-87
2022/03/22 03:13:09;;;;;;;;;;;6.00;43.40;;;;;;5053111;28;20004;-87
2022/03/22 03:15:34;;;;;;;;;;;5.90;43.40;;;;;;5069416;28;20247;-87
2022/03/22 03:18:00;;;;;;;;;;;5.80;44.10;;;;;;5071615;28;19920;-87
2022/03/22 03:20:26;;;;;;;;;;;5.70;44.50;;;;;;5072885;28;20427;-86
2022/03/22 03:22:51;;;;;;;;;;;5.60;45.30;;;;;;5072886;28;19916;-87
2022/03/22 03:25:18;;;;;;;;;;;5.50;46.20;;;;;;5072446;28;19915;-87
2022/03/22 03:27:43;;;;;;;;;;;5.40;46.80;;;;;;5072894;28;20351;-87
2022/03/22 03:30:09;;;;;;;;;;;5.40;48.00;;;;;;5072713;28;19908;-87
2022/03/22 03:32:35;;;;;;;;;;;5.30;48.50;;;;;;5072798;28;20339;-87
2022/03/22 03:35:00;;;;;;;;;;;5.30;48.50;;;;;;5072409;28;19912;-87
2022/03/22 03:37:29;;;;;;;;;;;5.20;48.60;;;;;;5071485;28;19922;-87
2022/03/22 03:39:55;;;;;;;;;;;5.10;49.40;;;;;;5072708;28;19916;-87
2022/03/22 03:42:20;;;;;;;;;;;4.90;50.30;;;;;;5072730;28;19908;-87
2022/03/22 03:47:30;;;;;;;;;;;4.70;50.80;;;;;;5072921;28;19958;-87
2022/03/22 03:49:57;;;;;;;;;;;4.70;51.40;;;;;;5072597;28;19913;-87
2022/03/22 03:52:24;;;;;;;;;;;4.70;51.40;;;;;;5072552;28;19912;-86
2022/03/22 03:54:50;;;;;;;;;;;4.40;50.90;;;;;;5072058;28;20370;-86
2022/03/22 03:57:16;;;;;;;;;;;4.40;51.40;;;;;;5073156;28;19916;-86
2022/03/22 03:59:42;;;;;;;;;;;4.30;52.20;;;;;;5076195;28;20377;-86
2022/03/22 04:02:07;;;;;;;;;;;4.20;52.80;;;;;;5076160;28;19961;-86
2022/03/22 04:04:37;;;;;;;;;;;4.20;53.00;;;;;;5075888;28;19909;-86
2022/03/22 04:07:03;;;;;;;;;;;4.10;53.80;;;;;;5076108;28;19913;-86
2022/03/22 04:09:28;;;;;;;;;;;4.00;54.00;;;;;;5075951;28;19915;-86
2022/03/22 04:11:54;;;;;;;;;;;4.00;55.20;;;;;;5075916;28;19908;-86
2022/03/22 04:14:19;;;;;;;;;;;4.00;54.80;;;;;;5074282;28;19913;-87
2022/03/22 04:16:46;;;;;;;;;;;4.00;55.50;;;;;;5075893;28;20420;-86
2022/03/22 04:19:11;;;;;;;;;;;3.90;55.80;;;;;;5075880;28;19943;-87
2022/03/22 04:21:37;;;;;;;;;;;3.70;56.10;;;;;;5075776;28;19954;-87
2022/03/22 04:24:05;;;;;;;;;;;3.70;57.60;;;;;;5075409;28;19908;-87
2022/03/22 04:26:38;;;;;;;;;;;3.80;58.80;;;;;;5075999;28;19936;-87
2022/03/22 04:34:33;;;;;;;;;;;3.90;59.10;;;;;;5075532;28;19918;-86
2022/03/22 04:37:02;;;;;;;;;;;4.10;53.90;;;;;;5075615;28;20006;-86
2022/03/22 04:39:28;;;;;;;;;;;4.20;53.50;;;;;;5075450;28;19909;-86
2022/03/22 04:41:55;;;;;;;;;;;4.20;53.20;;;;;;5075462;28;19930;-86
2022/03/22 04:44:20;;;;;;;;;;;4.10;53.70;;;;;;5075006;28;19922;-86
2022/03/22 04:46:46;;;;;;;;;;;3.90;54.90;;;;;;5075188;28;19916;-86
2022/03/22 04:49:12;;;;;;;;;;;3.80;56.20;;;;;;5075250;28;19912;-87
2022/03/22 04:57:05;;;;;;;;;;;3.10;59.20;;;;;;5075185;28;19943;-86
2022/03/22 04:59:31;;;;;;;;;;;3.20;58.90;;;;;;5075356;28;20378;-87
2022/03/22 05:01:57;;;;;;;;;;;3.20;60.00;;;;;;5074996;28;19931;-87
2022/03/22 05:04:23;;;;;;;;;;;3.20;59.70;;;;;;5074751;28;20316;-87
2022/03/22 05:06:48;;;;;;;;;;;3.30;58.50;;;;;;5074910;28;19909;-87
2022/03/22 05:09:14;;;;;;;;;;;3.30;57.90;;;;;;5074545;28;19908;-87
2022/03/22 05:11:40;;;;;;;;;;;3.40;58.00;;;;;;5075097;28;19909;-87
2022/03/22 05:14:06;;;;;;;;;;;3.40;58.50;;;;;;5073171;28;19916;-87
2022/03/22 05:16:32;;;;;;;;;;;3.30;59.60;;;;;;5074774;28;19999;-87
2022/03/22 05:18:58;;;;;;;;;;;3.20;59.10;;;;;;5074727;28;20003;-86
2022/03/22 05:21:27;;;;;;;;;;;3.10;60.30;;;;;;5074668;28;19916;-86
2022/03/22 05:23:53;;;;;;;;;;;3.00;59.60;;;;;;5074623;28;19999;-86
2022/03/22 05:26:18;;;;;;;;;;;3.00;59.80;;;;;;5074572;28;19940;-86
2022/03/22 05:28:44;;;;;;;;;;;2.90;59.70;;;;;;5074478;28;20451;-86
2022/03/22 05:31:11;;;;;;;;;;;3.00;59.50;;;;;;5074259;28;19912;-86
2022/03/22 05:33:37;;;;;;;;;;;3.20;59.80;;;;;;5074357;28;19908;-86
2022/03/22 05:36:04;;;;;;;;;;;3.30;59.60;;;;;;5074284;28;19919;-86
2022/03/22 05:38:30;;;;;;;;;;;3.50;59.80;;;;;;5074261;28;20366;-86
2022/03/22 05:40:56;;;;;;;;;;;3.40;59.50;;;;;;5074100;28;19932;-86
2022/03/22 05:43:21;;;;;;;;;;;3.50;59.00;;;;;;5074262;28;19955;-87
2022/03/22 05:45:48;;;;;;;;;;;3.50;59.10;;;;;;5074146;28;19909;-86
2022/03/22 05:48:26;;;;;;;;;;;3.50;59.80;;;;;;5074128;28;19977;-87
2022/03/22 05:50:52;;;;;;;;;;;3.60;59.40;;;;;;5073298;28;19913;-87
2022/03/22 05:53:17;;;;;;;;;;;3.70;59.70;;;;;;5073226;28;19920;-87
2022/03/22 05:55:43;;;;;;;;;;;3.70;59.60;;;;;;5074002;28;20007;-86
2022/03/22 05:58:09;;;;;;;;;;;3.80;58.60;;;;;;5073833;28;20377;-86
2022/03/22 06:00:35;;;;;;;;;;;3.50;60.00;;;;;;5073634;28;20275;-86
2022/03/22 06:03:01;;;;;;;;;;;3.20;61.60;;;;;;5074183;28;19909;-86
2022/03/22 06:05:28;;;;;;;;;;;3.00;62.00;;;;;;5071871;28;19913;-86
2022/03/22 06:07:54;;;;;;;;;;;2.90;62.60;;;;;;5073141;28;20408;-86
2022/03/22 06:10:20;;;;;;;;;;;3.00;62.10;;;;;;5073339;28;19919;-86
2022/03/22 06:12:48;;;;;;;;;;;3.00;63.30;;;;;;5073684;28;19912;-86
2022/03/22 06:15:16;;;;;;;;;;;3.10;61.20;;;;;;5073234;28;19917;-86
2022/03/22 06:17:58;;;;;;;;;;;3.30;61.10;;;;;;5073205;28;20482;-86
2022/03/22 06:20:25;;;;;;;;;;;3.40;60.90;;;;;;5072659;28;19917;-86
2022/03/22 06:22:50;;;;;;;;;;;3.40;62.80;;;;;;5073464;28;19915;-86
2022/03/22 06:25:17;;;;;;;;;;;3.30;63.00;;;;;;5072721;28;20362;-87
2022/03/22 06:27:43;;;;;;;;;;;3.50;60.00;;;;;;5072817;28;19972;-87
2022/03/22 06:30:09;;;;;;;;;;;3.60;61.10;;;;;;5072548;28;19912;-87
2022/03/22 06:32:48;;;;;;;;;;;3.80;60.60;;;;;;5075443;28;19951;-87
2022/03/22 06:35:15;;;;;;;;;;;4.00;58.20;;;;;;5064271;28;19917;-86
2022/03/22 06:37:40;;;;;;;;;;;4.40;55.90;;;;;;5068498;28;19944;-86
2022/03/22 06:40:07;;;;;;;;;;;4.40;56.20;;;;;;5068698;28;20065;-86
2022/03/22 06:42:32;;;;;;;;;;;4.60;54.80;;;;;;5071839;28;20386;-86
2022/03/22 06:44:58;;;;;;;;;;;4.70;56.00;;;;;;5074598;28;19920;-86
2022/03/22 06:47:23;;;;;;;;;;;4.70;56.80;;;;;;5071756;28;19912;-86
2022/03/22 06:49:49;;;;;;;;;;;4.80;54.20;;;;;;5054327;28;20030;-87
2022/03/22 06:52:14;;;;;;;;;;;4.90;54.60;;;;;;5070286;28;20286;-86
2022/03/22 06:54:40;;;;;;;;;;;5.20;54.80;;;;;;5065303;28;19929;-87
2022/03/22 06:57:06;;;;;;;;;;;5.30;54.90;;;;;;5059561;28;20286;-87
2022/03/22 06:59:32;;;;;;;;;;;5.40;56.40;;;;;;5068609;28;20469;-86
2022/03/22 07:01:57;;;;;;;;;;;5.50;56.30;;;;;;5065336;28;19920;-86
2022/03/22 07:04:23;;;;;;;;;;;5.50;56.00;;;;;;5067915;28;20283;-86
2022/03/22 07:06:49;;;;;;;;;;;5.70;59.60;;;;;;5068824;28;19912;-87
2022/03/22 07:09:14;;;;;;;;;;;5.80;57.70;;;;;;5073564;28;19952;-87
2022/03/22 07:11:52;;;;;;;;;;;5.90;56.00;;;;;;5064444;28;20317;-87
2022/03/22 07:14:24;;;;;;;;;;;6.10;53.50;;;;;;5067729;28;20282;-86
2022/03/22 07:16:50;;;;;;;;;;;6.50;53.30;;;;;;5071068;28;19917;-86
2022/03/22 07:19:20;;;;;;;;;;;6.70;53.00;;;;;;5070958;28;20006;-86
2022/03/22 07:21:46;;;;;;;;;;;6.80;50.80;;;;;;5069541;28;20010;-86
2022/03/22 07:24:13;;;;;;;;;;;6.90;51.00;;;;;;5064955;28;20008;-86
2022/03/22 07:26:40;;;;;;;;;;;7.00;49.40;;;;;;5068551;28;20032;-86
2022/03/22 07:29:06;;;;;;;;;;;7.10;50.30;;;;;;5063554;28;20382;-86
2022/03/22 07:31:37;;;;;;;;;;;7.20;50.10;;;;;;5067706;28;19913;-86
2022/03/22 07:34:11;;;;;;;;;;;7.30;51.10;;;;;;5073108;28;19913;-87
2022/03/22 07:36:39;;;;;;;;;;;7.50;50.50;;;;;;5056819;28;19917;-87
2022/03/22 07:39:06;;;;;;;;;;;7.80;50.00;;;;;;5069435;28;20321;-87
2022/03/22 07:41:31;;;;;;;;;;;7.90;49.20;;;;;;5073722;28;19913;-87
2022/03/22 07:43:57;;;;;;;;;;;8.20;48.30;;;;;;5071306;28;20298;-87
2022/03/22 07:46:23;;;;;;;;;;;8.40;45.40;;;;;;5068275;28;19912;-87
2022/03/22 07:48:49;;;;;;;;;;;8.60;45.00;;;;;;5068464;28;19913;-87
2022/03/22 07:54:00;;;;;;;;;;;9.10;42.30;;;;;;5067936;28;20389;-87
2022/03/22 07:56:25;;;;;;;;;;;9.20;42.40;;;;;;5072305;28;19916;-87
2022/03/22 07:58:51;;;;;;;;;;;9.30;43.00;;;;;;5071969;28;19912;-87
2022/03/22 08:01:17;;;;;;;;;;;9.40;42.00;;;;;;5069051;28;19912;-87
2022/03/22 08:03:43;;;;;;;;;;;9.40;42.30;;;;;;5071305;28;19919;-87
2022/03/22 08:06:08;;;;;;;;;;;9.50;41.20;;;;;;5072901;28;20489;-87
2022/03/22 08:08:35;;;;;;;;;;;9.70;41.20;;;;;;5069971;28;20011;-87
2022/03/22 08:11:01;;;;;;;;;;;9.90;41.40;;;;;;5073556;28;19912;-87
2022/03/22 08:13:27;;;;;;;;;;;10.00;40.70;;;;;;5073214;28;19920;-87
2022/03/22 08:15:52;;;;;;;;;;;10.10;40.10;;;;;;5073486;28;19924;-87
2022/03/22 08:18:18;;;;;;;;;;;10.30;38.90;;;;;;5074397;28;19912;-87
2022/03/22 08:20:43;;;;;;;;;;;10.40;36.90;;;;;;5074339;28;20000;-87
2022/03/22 08:23:09;;;;;;;;;;;10.60;37.00;;;;;;5077129;28;19960;-87
2022/03/22 08:25:36;;;;;;;;;;;10.70;35.80;;;;;;5074952;28;20336;-87
2022/03/22 08:28:03;;;;;;;;;;;10.80;36.40;;;;;;5081328;28;20011;-87
2022/03/22 08:30:29;;;;;;;;;;;10.90;36.20;;;;;;5075624;28;20259;-87
2022/03/22 08:32:56;;;;;;;;;;;10.90;36.20;;;;;;5073400;28;19963;-87
2022/03/22 08:35:23;;;;;;;;;;;11.00;35.50;;;;;;5074635;28;20014;-87
2022/03/22 08:37:49;;;;;;;;;;;11.10;36.70;;;;;;5076520;28;19952;-87
2022/03/22 08:40:15;;;;;;;;;;;11.30;36.10;;;;;;5077275;28;19947;-87
2022/03/22 08:42:44;;;;;;;;;;;11.40;35.50;;;;;;5073120;28;19913;-87
2022/03/22 08:45:11;;;;;;;;;;;11.50;35.90;;;;;;5073584;28;19912;-87
2022/03/22 08:47:36;;;;;;;;;;;11.60;35.00;;;;;;5075726;28;19916;-87
2022/03/22 08:50:05;;;;;;;;;;;11.70;32.90;;;;;;5072471;28;19912;-87
2022/03/22 08:52:31;;;;;;;;;;;11.80;31.50;;;;;;5073790;28;19912;-86
2022/03/22 08:54:56;;;;;;;;;;;11.90;31.60;;;;;;5072249;28;19931;-86
2022/03/22 08:57:22;;;;;;;;;;;12.00;30.80;;;;;;5072865;28;19917;-87
2022/03/22 08:59:48;;;;;;;;;;;12.10;33.10;;;;;;5073017;28;19913;-87
2022/03/22 09:02:13;;;;;;;;;;;12.20;30.10;;;;;;5074379;28;19912;-87
2022/03/22 09:07:23;;;;;;;;;;;12.40;30.90;;;;;;5074611;28;19923;-87
2022/03/22 09:09:48;;;;;;;;;;;12.40;30.80;;;;;;5077784;28;19912;-87
2022/03/22 09:12:14;;;;;;;;;;;12.50;29.80;;;;;;5074531;28;20147;-87
2022/03/22 09:14:39;;;;;;;;;;;12.60;28.90;;;;;;5073696;28;19969;-87
2022/03/22 09:17:05;;;;;;;;;;;12.60;29.80;;;;;;5072660;28;20292;-88
2022/03/22 09:19:33;;;;;;;;;;;12.70;29.40;;;;;;5074420;28;19919;-87
2022/03/22 09:22:00;;;;;;;;;;;12.80;29.20;;;;;;5071990;28;19912;-87
2022/03/22 09:24:25;;;;;;;;;;;12.90;29.50;;;;;;5068754;28;19915;-87
2022/03/22 09:26:51;;;;;;;;;;;13.00;27.50;;;;;;5072254;28;19913;-87
2022/03/22 09:29:16;;;;;;;;;;;13.10;26.80;;;;;;5073969;28;19943;-87
2022/03/22 09:31:42;;;;;;;;;;;13.20;28.90;;;;;;5071817;28;19938;-87
2022/03/22 09:34:10;;;;;;;;;;;13.20;28.80;;;;;;5072905;28;19912;-87
2022/03/22 09:36:37;;;;;;;;;;;13.30;29.10;;;;;;5070550;28;20396;-86
2022/03/22 09:39:04;;;;;;;;;;;13.40;27.00;;;;;;5072954;28;19913;-87
2022/03/22 09:41:30;;;;;;;;;;;13.20;26.10;;;;;;5073009;28;19979;-87
2022/03/22 09:43:56;;;;;;;;;;;13.20;26.60;;;;;;5070695;28;19912;-87
2022/03/22 09:46:22;;;;;;;;;;;13.40;28.00;;;;;;5071975;28;19958;-87
2022/03/22 09:48:48;;;;;;;;;;;13.40;27.80;;;;;;5071495;28;19974;-87
2022/03/22 09:54:00;;;;;;;;;;;13.60;27.00;;;;;;5072549;28;19951;-87
2022/03/22 09:56:30;;;;;;;;;;;13.80;29.90;;;;;;5066353;28;19920;-87
2022/03/22 09:58:59;;;;;;;;;;;14.00;30.10;;;;;;5072429;28;19919;-87
2022/03/22 10:01:25;;;;;;;;;;;14.10;27.90;;;;;;5073053;28;19935;-87
2022/03/22 10:04:12;;;;;;;;;;;14.20;28.50;;;;;;5070908;28;20267;-87
2022/03/22 10:06:39;;;;;;;;;;;14.30;27.30;;;;;;5073065;28;19912;-87
2022/03/22 10:09:07;;;;;;;;;;;14.30;26.50;;;;;;5071886;28;19920;-87
2022/03/22 10:11:43;;;;;;;;;;;14.20;26.80;;;;;;5071814;28;19954;-87
2022/03/22 10:14:09;;;;;;;;;;;14.30;26.00;;;;;;5073539;28;19992;-87
2022/03/22 10:16:50;;;;;;;;;;;14.30;28.60;;;;;;5073771;28;19927;-87
2022/03/22 10:19:22;;;;;;;;;;;14.50;27.60;;;;;;5068763;28;19935;-87
2022/03/22 10:21:48;;;;;;;;;;;14.50;26.30;;;;;;5071191;28;19919;-87
2022/03/22 10:24:17;;;;;;;;;;;14.60;25.40;;;;;;5072326;28;19912;-87
2022/03/22 10:26:44;;;;;;;;;;;14.40;26.00;;;;;;5072155;28;19912;-87
2022/03/22 10:29:14;;;;;;;;;;;14.40;24.50;;;;;;5072416;28;19912;-87
2022/03/22 10:31:40;;;;;;;;;;;14.50;25.70;;;;;;5071535;28;19944;-87
2022/03/22 10:34:06;;;;;;;;;;;14.60;27.10;;;;;;5071727;28;20007;-87
2022/03/22 10:36:36;;;;;;;;;;;14.60;25.80;;;;;;5071950;28;19964;-87
2022/03/22 10:39:11;;;;;;;;;;;14.70;25.80;;;;;;5066350;28;19965;-87
2022/03/22 10:41:38;;;;;;;;;;;14.80;25.90;;;;;;5072966;28;20321;-87
2022/03/22 10:44:05;;;;;;;;;;;14.80;26.20;;;;;;5071653;28;19920;-87
2022/03/22 10:46:31;;;;;;;;;;;14.70;26.50;;;;;;5072592;28;19912;-87
2022/03/22 10:49:10;;;;;;;;;;;14.70;26.20;;;;;;5062850;28;20390;-87
2022/03/22 10:51:36;;;;;;;;;;;14.90;27.70;;;;;;5070868;28;19913;-87
2022/03/22 10:54:02;;;;;;;;;;;15.00;26.50;;;;;;5080085;22;19935;-87
2022/03/22 10:56:28;;;;;;;;;;;15.10;25.90;;;;;;5070964;28;19916;-87
2022/03/22 10:58:54;;;;;;;;;;;15.30;26.80;;;;;;5069412;28;19913;-87
2022/03/22 11:01:20;;;;;;;;;;;15.40;27.00;;;;;;5071707;28;19938;-87
2022/03/22 11:03:48;;;;;;;;;;;15.60;26.30;;;;;;5070445;28;19959;-87
2022/03/22 11:06:14;;;;;;;;;;;15.80;27.50;;;;;;5069024;28;20367;-87
2022/03/22 11:08:40;;;;;;;;;;;16.10;27.20;;;;;;5071300;28;19919;-87
2022/03/22 11:11:07;;;;;;;;;;;16.40;25.90;;;;;;5071691;28;19919;-87
2022/03/22 11:13:32;;;;;;;;;;;16.50;25.60;;;;;;5072136;28;19955;-87
2022/03/22 11:15:59;;;;;;;;;;;16.70;27.50;;;;;;5072275;28;20439;-87
2022/03/22 11:18:25;;;;;;;;;;;16.80;24.00;;;;;;5070158;28;19912;-87
2022/03/22 11:20:52;;;;;;;;;;;16.80;24.60;;;;;;5070200;28;19959;-87
2022/03/22 11:23:23;;;;;;;;;;;16.80;24.00;;;;;;5071497;28;19920;-87
2022/03/22 11:25:48;;;;;;;;;;;16.80;24.80;;;;;;5072650;28;19912;-87
2022/03/22 11:28:17;;;;;;;;;;;16.70;25.30;;;;;;5072819;28;19931;-87
2022/03/22 11:30:43;;;;;;;;;;;16.80;25.80;;;;;;5072675;28;19909;-87
2022/03/22 11:35:56;;;;;;;;;;;17.30;23.30;;;;;;5072496;28;19923;-87
2022/03/22 11:38:41;;;;;;;;;;;17.70;22.30;;;;;;5072729;28;19944;-87
2022/03/22 11:44:13;;;;;;;;;;;17.90;24.80;;;;;;5071967;28;19927;-87
2022/03/22 11:46:39;;;;;;;;;;;18.20;23.30;;;;;;5072597;28;19909;-88
2022/03/22 11:49:14;;;;;;;;;;;18.50;23.80;;;;;;5072579;28;19921;-88
2022/03/22 11:51:47;;;;;;;;;;;18.60;23.90;;;;;;5072563;28;19987;-87
2022/03/22 11:54:12;;;;;;;;;;;18.40;22.80;;;;;;5072043;28;19924;-87
2022/03/22 11:56:48;;;;;;;;;;;18.40;24.20;;;;;;5072548;28;19915;-87
2022/03/22 11:59:15;;;;;;;;;;;18.30;24.60;;;;;;5072791;28;19908;-87
2022/03/22 12:01:41;;;;;;;;;;;18.30;25.30;;;;;;5072459;28;20435;-87
2022/03/22 12:04:14;;;;;;;;;;;18.50;24.30;;;;;;5072554;28;19916;-87
2022/03/22 12:06:40;;;;;;;;;;;18.80;21.90;;;;;;5072411;28;19995;-87
2022/03/22 12:09:08;;;;;;;;;;;19.20;20.80;;;;;;5072391;28;19948;-87
2022/03/22 12:11:35;;;;;;;;;;;19.50;21.70;;;;;;5071890;28;19995;-88
2022/03/22 12:14:02;;;;;;;;;;;19.60;20.80;;;;;;5071831;28;19909;-88
2022/03/22 12:16:27;;;;;;;;;;;19.90;20.00;;;;;;5071944;28;19969;-87
2022/03/22 12:18:53;;;;;;;;;;;20.00;21.80;;;;;;5073831;28;19909;-88
2022/03/22 12:21:19;;;;;;;;;;;20.30;21.30;;;;;;5075835;28;19912;-88
2022/03/22 12:23:45;;;;;;;;;;;20.50;21.00;;;;;;5075356;28;19912;-88
2022/03/22 12:26:11;;;;;;;;;;;20.70;19.10;;;;;;5075732;28;19958;-88
2022/03/22 12:28:50;;;;;;;;;;;20.50;20.70;;;;;;5073278;28;20007;-88
2022/03/22 12:31:20;;;;;;;;;;;20.50;19.80;;;;;;5074063;28;20003;-88
2022/03/22 12:33:56;;;;;;;;;;;20.60;22.20;;;;;;5071667;28;20300;-88
2022/03/22 12:36:22;;;;;;;;;;;20.90;20.10;;;;;;5068489;28;20432;-88
2022/03/22 12:38:48;;;;;;;;;;;21.50;18.40;;;;;;5066688;28;19913;-88
2022/03/22 12:41:14;;;;;;;;;;;22.00;19.00;;;;;;5069683;28;19977;-88
2022/03/22 12:43:45;;;;;;;;;;;22.60;19.20;;;;;;5068841;28;20006;-88
2022/03/22 12:46:12;;;;;;;;;;;23.10;18.30;;;;;;5066027;28;19913;-88
2022/03/22 12:48:39;;;;;;;;;;;24.30;17.70;;;;;;5068581;28;20001;-88
2022/03/22 12:51:04;;;;;;;;;;;25.40;17.60;;;;;;5068558;28;19973;-88
2022/03/22 12:53:31;;;;;;;;;;;25.90;17.70;;;;;;5064748;28;20433;-88
2022/03/22 12:55:57;;;;;;;;;;;26.70;17.20;;;;;;5081143;28;20196;-88
2022/03/22 12:58:27;;;;;;;;;;;27.60;16.20;;;;;;5074079;28;20150;-88
2022/03/22 13:00:52;;;;;;;;;;;28.60;15.50;;;;;;5070992;28;20370;-88
2022/03/22 13:03:19;;;;;;;;;;;28.00;14.70;;;;;;5072661;28;19919;-88
2022/03/22 13:05:51;;;;;;;;;;;26.50;15.50;;;;;;5071888;28;19912;-88
2022/03/22 13:08:16;;;;;;;;;;;26.30;15.30;;;;;;5069176;28;19955;-88
2022/03/22 13:15:01;;;;;;;;;;;25.90;15.90;;;;;;5073367;28;19919;-88
2022/03/22 13:16:19;;;;;;;;;;;26.10;15.80;;;;;;5066178;28;19931;-88
2022/03/22 13:18:48;;;;;;;;;;;27.10;16.20;;;;;;5065371;28;20022;-88
2022/03/22 13:21:14;;;;;;;;;;;27.20;14.90;;;;;;5058980;28;19912;-88
2022/03/22 13:23:40;;;;;;;;;;;27.90;13.30;;;;;;5065582;28;19946;-88
2022/03/22 13:26:14;;;;;;;;;;;27.60;14.10;;;;;;5070326;28;20404;-88
2022/03/22 13:28:40;;;;;;;;;;;26.50;16.20;;;;;;5069627;28;19920;-88
2022/03/22 13:31:06;;;;;;;;;;;26.20;16.70;;;;;;5074345;28;20397;-88
2022/03/22 13:33:33;;;;;;;;;;;26.30;16.80;;;;;;5072127;28;19951;-88
2022/03/22 13:36:00;;;;;;;;;;;26.30;17.30;;;;;;5068741;28;19921;-87
2022/03/22 13:38:26;;;;;;;;;;;25.80;15.80;;;;;;5072712;28;19919;-88
2022/03/22 13:41:14;;;;;;;;;;;24.60;18.80;;;;;;5066388;28;19913;-88
2022/03/22 13:43:42;;;;;;;;;;;24.60;17.00;;;;;;5065739;28;20429;-88
2022/03/22 13:46:10;;;;;;;;;;;24.60;17.10;;;;;;5067683;28;19916;-88
2022/03/22 13:48:42;;;;;;;;;;;24.40;18.20;;;;;;5065646;28;19971;-87
2022/03/22 13:51:09;;;;;;;;;;;24.70;19.00;;;;;;5071849;28;20420;-88
2022/03/22 13:53:34;;;;;;;;;;;25.70;17.80;;;;;;5068345;28;19924;-88
2022/03/22 13:56:00;;;;;;;;;;;26.90;15.10;;;;;;5057255;28;19917;-88
2022/03/22 13:58:26;;;;;;;;;;;27.50;13.50;;;;;;5071694;28;19935;-88
2022/03/22 14:00:53;;;;;;;;;;;27.30;14.70;;;;;;5071690;28;19913;-88
2022/03/22 14:03:19;;;;;;;;;;;28.00;14.00;;;;;;5070826;28;19912;-88
2022/03/22 14:05:45;;;;;;;;;;;27.70;14.40;;;;;;5073280;28;20366;-88
2022/03/22 14:08:11;;;;;;;;;;;26.60;14.50;;;;;;5069580;28;19955;-89
2022/03/22 14:10:38;;;;;;;;;;;26.70;15.20;;;;;;5072854;28;19913;-89
2022/03/22 14:13:04;;;;;;;;;;;27.80;15.00;;;;;;5069646;28;19919;-89
2022/03/22 14:15:29;;;;;;;;;;;28.80;13.60;;;;;;5072980;28;19916;-89
2022/03/22 14:17:55;;;;;;;;;;;29.10;13.70;;;;;;5073234;28;19913;-89
2022/03/22 14:20:21;;;;;;;;;;;29.70;11.90;;;;;;5072062;28;19968;-89
2022/03/22 14:22:48;;;;;;;;;;;29.80;12.70;;;;;;5072622;28;20467;-89
2022/03/22 14:25:15;;;;;;;;;;;28.90;13.50;;;;;;5072524;28;19913;-89
2022/03/22 14:27:41;;;;;;;;;;;28.50;14.20;;;;;;5072421;28;19912;-89
2022/03/22 14:30:09;;;;;;;;;;;27.70;15.10;;;;;;5071155;28;20010;-89
2022/03/22 14:32:35;;;;;;;;;;;27.60;14.00;;;;;;5073008;28;19927;-89
2022/03/22 14:37:47;;;;;;;;;;;27.60;13.70;;;;;;5063239;28;19920;-89
2022/03/22 14:40:13;;;;;;;;;;;27.70;14.10;;;;;;5071890;28;20290;-89
2022/03/22 14:42:38;;;;;;;;;;;28.10;14.20;;;;;;5070483;28;19913;-89
2022/03/22 14:45:08;;;;;;;;;;;28.80;14.20;;;;;;5070716;28;19927;-89
2022/03/22 14:47:34;;;;;;;;;;;29.00;13.20;;;;;;5072257;28;19934;-89
2022/03/22 14:50:01;;;;;;;;;;;29.20;13.70;;;;;;5073088;28;19973;-88
2022/03/22 14:55:11;;;;;;;;;;;28.30;13.90;;;;;;5070082;28;19926;-89
2022/03/22 15:00:21;;;;;;;;;;;27.00;15.40;;;;;;5072463;28;20385;-88
2022/03/22 15:02:48;;;;;;;;;;;26.80;15.10;;;;;;5071919;28;20150;-88
2022/03/22 15:05:34;;;;;;;;;;;26.90;15.00;;;;;;5070036;28;19912;-88
2022/03/22 15:08:09;;;;;;;;;;;27.10;14.40;;;;;;5075226;28;19927;-88